sensor_id;sensor_type;location;lat;lon;timestamp;pressure;altitude;pressure_sealevel;temperature;humidity
29359;BME280;16347;53.232;6.556;2022-10-31T00:01:21;101960.38;;;16.70;70.38
29359;BME280;16347;53.232;6.556;2022-10-31T00:03:49;101963.97;;;16.70;70.16
29359;BME280;16347;53.232;6.556;2022-10-31T00:06:17;101969.81;;;16.75;70.26
29359;BME280;16347;53.232;6.556;2022-10-31T00:08:45;101958.66;;;16.61;70.28
29359;BME280;16347;53.232;6.556;2022-10-31T00:11:13;101967.38;;;16.48;70.96
29359;BME280;16347;53.232;6.556;2022-10-31T00:13:43;101970.25;;;16.38;71.14
29359;BME280;16347;53.232;6.556;2022-10-31T00:16:15;101974.22;;;16.44;71.58
29359;BME280;16347;53.232;6.556;2022-10-31T00:18:48;101972.69;;;16.41;71.04
29359;BME280;16347;53.232;6.556;2022-10-31T00:21:17;101972.84;;;16.40;71.01
29359;BME280;16347;53.232;6.556;2022-10-31T00:23:45;101992.88;;;16.32;71.41
29359;BME280;16347;53.232;6.556;2022-10-31T00:26:13;101985.53;;;16.33;71.22
29359;BME280;16347;53.232;6.556;2022-10-31T00:28:43;101983.28;;;16.36;71.21
29359;BME280;16347;53.232;6.556;2022-10-31T00:31:12;101987.44;;;16.40;70.92
29359;BME280;16347;53.232;6.556;2022-10-31T00:33:41;101984.84;;;16.31;71.46
29359;BME280;16347;53.232;6.556;2022-10-31T00:36:13;101987.94;;;16.28;71.05
29359;BME280;16347;53.232;6.556;2022-10-31T00:38:41;101988.00;;;16.02;71.83
29359;BME280;16347;53.232;6.556;2022-10-31T00:41:09;101990.75;;;16.02;71.97
29359;BME280;16347;53.232;6.556;2022-10-31T00:43:40;101991.94;;;16.00;72.04
29359;BME280;16347;53.232;6.556;2022-10-31T00:46:09;101996.56;;;15.91;72.38
29359;BME280;16347;53.232;6.556;2022-10-31T00:48:37;101995.06;;;16.05;72.18
29359;BME280;16347;53.232;6.556;2022-10-31T00:51:06;101999.00;;;16.10;71.55
29359;BME280;16347;53.232;6.556;2022-10-31T00:53:34;102000.22;;;16.16;71.60
29359;BME280;16347;53.232;6.556;2022-10-31T00:56:03;101998.28;;;16.00;71.03
29359;BME280;16347;53.232;6.556;2022-10-31T00:58:31;101995.03;;;15.97;71.55
29359;BME280;16347;53.232;6.556;2022-10-31T01:01:00;101996.22;;;16.02;71.59
29359;BME280;16347;53.232;6.556;2022-10-31T01:03:32;102000.66;;;15.95;71.50
29359;BME280;16347;53.232;6.556;2022-10-31T01:06:01;102004.78;;;15.99;71.59
29359;BME280;16347;53.232;6.556;2022-10-31T01:08:32;102001.91;;;16.01;71.29
29359;BME280;16347;53.232;6.556;2022-10-31T01:11:03;102002.00;;;15.83;72.06
29359;BME280;16347;53.232;6.556;2022-10-31T01:13:32;102009.16;;;15.76;71.76
29359;BME280;16347;53.232;6.556;2022-10-31T01:16:01;102009.03;;;15.85;71.54
29359;BME280;16347;53.232;6.556;2022-10-31T01:18:33;102011.63;;;15.87;71.81
29359;BME280;16347;53.232;6.556;2022-10-31T01:21:03;102012.44;;;15.79;71.99
29359;BME280;16347;53.232;6.556;2022-10-31T01:23:31;102011.28;;;15.90;71.62
29359;BME280;16347;53.232;6.556;2022-10-31T01:26:01;102016.44;;;15.93;71.71
29359;BME280;16347;53.232;6.556;2022-10-31T01:28:32;102009.59;;;15.97;71.42
29359;BME280;16347;53.232;6.556;2022-10-31T01:31:01;102020.19;;;15.84;71.29
29359;BME280;16347;53.232;6.556;2022-10-31T01:33:29;102019.88;;;15.95;71.26
29359;BME280;16347;53.232;6.556;2022-10-31T01:35:58;102014.06;;;15.98;70.45
29359;BME280;16347;53.232;6.556;2022-10-31T01:38:26;102012.34;;;16.05;70.75
29359;BME280;16347;53.232;6.556;2022-10-31T01:40:54;102017.50;;;16.00;70.35
29359;BME280;16347;53.232;6.556;2022-10-31T01:43:22;102006.00;;;15.97;70.55
29359;BME280;16347;53.232;6.556;2022-10-31T01:45:52;102004.66;;;16.01;70.42
29359;BME280;16347;53.232;6.556;2022-10-31T01:48:24;102006.03;;;16.05;70.37
29359;BME280;16347;53.232;6.556;2022-10-31T01:50:59;102000.38;;;16.06;70.29
29359;BME280;16347;53.232;6.556;2022-10-31T01:53:27;102008.25;;;16.01;69.65
29359;BME280;16347;53.232;6.556;2022-10-31T01:55:55;102002.97;;;16.08;69.69
29359;BME280;16347;53.232;6.556;2022-10-31T01:58:25;102008.25;;;16.09;69.18
29359;BME280;16347;53.232;6.556;2022-10-31T02:00:58;101997.63;;;16.06;69.49
29359;BME280;16347;53.232;6.556;2022-10-31T02:03:33;101998.97;;;16.02;69.37
29359;BME280;16347;53.232;6.556;2022-10-31T02:06:03;102007.91;;;16.04;69.43
29359;BME280;16347;53.232;6.556;2022-10-31T02:08:37;102006.88;;;15.97;69.57
29359;BME280;16347;53.232;6.556;2022-10-31T02:11:07;102005.31;;;15.95;69.32
29359;BME280;16347;53.232;6.556;2022-10-31T02:13:36;102003.34;;;15.79;69.54
29359;BME280;16347;53.232;6.556;2022-10-31T02:16:09;102015.22;;;15.87;69.55
29359;BME280;16347;53.232;6.556;2022-10-31T02:18:37;102001.66;;;15.86;69.24
29359;BME280;16347;53.232;6.556;2022-10-31T02:21:12;102001.34;;;15.89;69.45
29359;BME280;16347;53.232;6.556;2022-10-31T02:24:05;102010.41;;;15.89;69.35
29359;BME280;16347;53.232;6.556;2022-10-31T02:26:58;102014.50;;;15.77;69.65
29359;BME280;16347;53.232;6.556;2022-10-31T02:32:37;102006.94;;;15.79;69.37
29359;BME280;16347;53.232;6.556;2022-10-31T02:35:11;102014.28;;;15.71;69.52
29359;BME280;16347;53.232;6.556;2022-10-31T02:37:47;102000.19;;;15.58;69.97
29359;BME280;16347;53.232;6.556;2022-10-31T02:40:21;102001.22;;;15.65;69.86
29359;BME280;16347;53.232;6.556;2022-10-31T02:43:12;102001.94;;;15.67;69.54
29359;BME280;16347;53.232;6.556;2022-10-31T02:45:48;102003.66;;;15.68;69.61
29359;BME280;16347;53.232;6.556;2022-10-31T02:48:23;101997.50;;;15.74;69.56
29359;BME280;16347;53.232;6.556;2022-10-31T02:50:52;101994.16;;;15.96;69.17
29359;BME280;16347;53.232;6.556;2022-10-31T02:53:22;101993.41;;;15.78;68.49
29359;BME280;16347;53.232;6.556;2022-10-31T02:55:59;101991.81;;;15.67;68.84
29359;BME280;16347;53.232;6.556;2022-10-31T02:58:31;101996.91;;;15.54;69.46
29359;BME280;16347;53.232;6.556;2022-10-31T03:04:20;101998.25;;;15.58;69.39
29359;BME280;16347;53.232;6.556;2022-10-31T03:06:57;101999.47;;;15.56;69.33
29359;BME280;16347;53.232;6.556;2022-10-31T03:09:34;101991.81;;;15.67;69.01
29359;BME280;16347;53.232;6.556;2022-10-31T03:12:08;102000.72;;;15.69;68.88
29359;BME280;16347;53.232;6.556;2022-10-31T03:14:40;101999.59;;;15.80;68.46
29359;BME280;16347;53.232;6.556;2022-10-31T03:17:15;101996.28;;;15.43;69.21
29359;BME280;16347;53.232;6.556;2022-10-31T03:19:49;102000.31;;;15.30;69.70
29359;BME280;16347;53.232;6.556;2022-10-31T03:22:20;101990.88;;;15.51;69.30
29359;BME280;16347;53.232;6.556;2022-10-31T03:24:49;101993.31;;;15.36;69.44
29359;BME280;16347;53.232;6.556;2022-10-31T03:27:22;101994.34;;;15.35;69.46
29359;BME280;16347;53.232;6.556;2022-10-31T03:29:54;102001.88;;;15.33;69.75
29359;BME280;16347;53.232;6.556;2022-10-31T03:32:27;102001.53;;;15.36;69.45
29359;BME280;16347;53.232;6.556;2022-10-31T03:34:59;102001.84;;;15.51;69.02
29359;BME280;16347;53.232;6.556;2022-10-31T03:37:30;101999.09;;;15.51;68.75
29359;BME280;16347;53.232;6.556;2022-10-31T03:40:00;102007.53;;;15.57;68.63
29359;BME280;16347;53.232;6.556;2022-10-31T03:42:36;102011.66;;;15.61;68.65
29359;BME280;16347;53.232;6.556;2022-10-31T03:45:09;102011.34;;;15.64;68.07
29359;BME280;16347;53.232;6.556;2022-10-31T03:47:41;102009.09;;;15.60;67.78
29359;BME280;16347;53.232;6.556;2022-10-31T03:50:14;102015.97;;;15.64;67.78
29359;BME280;16347;53.232;6.556;2022-10-31T03:52:47;102016.97;;;15.63;67.83
29359;BME280;16347;53.232;6.556;2022-10-31T03:55:19;102007.75;;;15.64;67.90
29359;BME280;16347;53.232;6.556;2022-10-31T03:57:56;102013.69;;;15.59;67.56
29359;BME280;16347;53.232;6.556;2022-10-31T04:00:26;102017.13;;;15.61;67.71
29359;BME280;16347;53.232;6.556;2022-10-31T04:02:58;102015.44;;;15.60;67.96
29359;BME280;16347;53.232;6.556;2022-10-31T04:05:32;102018.38;;;15.67;67.75
29359;BME280;16347;53.232;6.556;2022-10-31T04:08:04;102024.06;;;15.73;67.11
29359;BME280;16347;53.232;6.556;2022-10-31T04:10:37;102017.88;;;15.71;67.06
29359;BME280;16347;53.232;6.556;2022-10-31T04:13:08;102022.19;;;15.74;67.18
29359;BME280;16347;53.232;6.556;2022-10-31T04:15:45;102020.47;;;15.73;67.02
29359;BME280;16347;53.232;6.556;2022-10-31T04:18:16;102018.59;;;15.73;66.95
29359;BME280;16347;53.232;6.556;2022-10-31T04:20:47;102023.34;;;15.71;66.38
29359;BME280;16347;53.232;6.556;2022-10-31T04:23:19;102018.19;;;15.60;66.74
29359;BME280;16347;53.232;6.556;2022-10-31T04:25:48;102017.31;;;15.60;66.39
29359;BME280;16347;53.232;6.556;2022-10-31T04:28:17;102020.72;;;15.36;67.26
29359;BME280;16347;53.232;6.556;2022-10-31T04:30:45;102019.44;;;15.48;67.12
29359;BME280;16347;53.232;6.556;2022-10-31T04:33:14;102020.06;;;15.42;67.30
29359;BME280;16347;53.232;6.556;2022-10-31T04:35:47;102021.41;;;15.38;67.21
29359;BME280;16347;53.232;6.556;2022-10-31T04:38:15;102021.41;;;15.38;67.52
29359;BME280;16347;53.232;6.556;2022-10-31T04:40:44;102019.06;;;15.43;67.22
29359;BME280;16347;53.232;6.556;2022-10-31T04:43:15;102022.28;;;15.38;67.35
29359;BME280;16347;53.232;6.556;2022-10-31T04:45:44;102025.56;;;15.42;67.45
29359;BME280;16347;53.232;6.556;2022-10-31T04:48:13;102015.13;;;15.46;67.50
29359;BME280;16347;53.232;6.556;2022-10-31T04:50:43;102015.47;;;15.43;67.29
29359;BME280;16347;53.232;6.556;2022-10-31T04:53:13;102012.63;;;15.52;67.04
29359;BME280;16347;53.232;6.556;2022-10-31T04:56:04;102014.59;;;15.42;66.37
29359;BME280;16347;53.232;6.556;2022-10-31T04:58:38;102011.31;;;15.38;66.48
29359;BME280;16347;53.232;6.556;2022-10-31T05:01:09;102012.34;;;15.37;66.83
29359;BME280;16347;53.232;6.556;2022-10-31T05:03:37;102014.38;;;15.35;66.92
29359;BME280;16347;53.232;6.556;2022-10-31T05:06:06;102011.44;;;15.29;66.96
29359;BME280;16347;53.232;6.556;2022-10-31T05:08:36;102010.25;;;15.31;66.93
29359;BME280;16347;53.232;6.556;2022-10-31T05:11:06;102009.41;;;15.31;67.11
29359;BME280;16347;53.232;6.556;2022-10-31T05:13:34;102007.34;;;15.33;67.02
29359;BME280;16347;53.232;6.556;2022-10-31T05:16:11;102009.22;;;15.32;67.62
29359;BME280;16347;53.232;6.556;2022-10-31T05:18:48;102010.63;;;15.36;67.45
29359;BME280;16347;53.232;6.556;2022-10-31T05:21:25;102016.66;;;15.40;67.11
29359;BME280;16347;53.232;6.556;2022-10-31T05:23:59;102003.47;;;15.44;66.72
29359;BME280;16347;53.232;6.556;2022-10-31T05:26:28;102009.28;;;15.40;66.52
29359;BME280;16347;53.232;6.556;2022-10-31T05:28:56;102012.34;;;15.37;66.72
29359;BME280;16347;53.232;6.556;2022-10-31T05:31:24;102014.38;;;15.35;66.42
29359;BME280;16347;53.232;6.556;2022-10-31T05:33:53;102014.06;;;15.38;66.76
29359;BME280;16347;53.232;6.556;2022-10-31T05:36:46;102015.56;;;15.51;66.91
29359;BME280;16347;53.232;6.556;2022-10-31T05:39:18;102029.97;;;15.35;66.91
29359;BME280;16347;53.232;6.556;2022-10-31T05:41:48;102018.53;;;15.39;66.62
29359;BME280;16347;53.232;6.556;2022-10-31T05:44:24;102021.94;;;15.41;66.15
29359;BME280;16347;53.232;6.556;2022-10-31T05:47:05;102020.41;;;15.39;66.23
29359;BME280;16347;53.232;6.556;2022-10-31T05:49:51;102023.63;;;15.34;66.62
29359;BME280;16347;53.232;6.556;2022-10-31T05:52:31;102024.13;;;15.30;66.46
29359;BME280;16347;53.232;6.556;2022-10-31T05:55:08;102028.25;;;15.34;66.98
29359;BME280;16347;53.232;6.556;2022-10-31T05:57:40;102024.47;;;15.35;66.46
29359;BME280;16347;53.232;6.556;2022-10-31T06:00:09;102017.31;;;15.34;66.68
29359;BME280;16347;53.232;6.556;2022-10-31T06:02:46;102025.66;;;15.32;66.77
29359;BME280;16347;53.232;6.556;2022-10-31T06:05:32;102027.72;;;15.30;66.35
29359;BME280;16347;53.232;6.556;2022-10-31T06:08:01;102030.47;;;15.30;66.09
29359;BME280;16347;53.232;6.556;2022-10-31T06:10:31;102024.97;;;15.30;66.38
29359;BME280;16347;53.232;6.556;2022-10-31T06:12:59;102013.16;;;15.30;66.21
29359;BME280;16347;53.232;6.556;2022-10-31T06:15:56;102020.13;;;15.24;66.08
29359;BME280;16347;53.232;6.556;2022-10-31T06:18:31;102017.22;;;15.26;66.40
29359;BME280;16347;53.232;6.556;2022-10-31T06:20:59;102023.19;;;15.21;66.48
29359;BME280;16347;53.232;6.556;2022-10-31T06:23:27;102022.03;;;15.24;66.61
29359;BME280;16347;53.232;6.556;2022-10-31T06:26:17;102025.59;;;15.24;66.38
29359;BME280;16347;53.232;6.556;2022-10-31T06:28:45;102027.50;;;15.24;66.54
29359;BME280;16347;53.232;6.556;2022-10-31T06:31:25;102026.84;;;15.30;66.43
29359;BME280;16347;53.232;6.556;2022-10-31T06:33:53;102027.31;;;15.25;66.58
29359;BME280;16347;53.232;6.556;2022-10-31T06:36:21;102024.03;;;15.22;66.35
29359;BME280;16347;53.232;6.556;2022-10-31T06:38:51;102027.50;;;15.24;66.31
29359;BME280;16347;53.232;6.556;2022-10-31T06:41:23;102020.44;;;15.21;66.79
29359;BME280;16347;53.232;6.556;2022-10-31T06:43:53;102016.69;;;15.22;66.89
29359;BME280;16347;53.232;6.556;2022-10-31T06:46:49;102021.16;;;15.23;66.61
29359;BME280;16347;53.232;6.556;2022-10-31T06:49:35;102018.25;;;15.25;66.60
29359;BME280;16347;53.232;6.556;2022-10-31T06:52:10;102011.59;;;15.27;66.65
29359;BME280;16347;53.232;6.556;2022-10-31T06:54:38;102024.25;;;15.28;66.58
29359;BME280;16347;53.232;6.556;2022-10-31T06:57:07;102015.91;;;15.30;66.24
29359;BME280;16347;53.232;6.556;2022-10-31T06:59:36;102022.38;;;15.29;66.37
29359;BME280;16347;53.232;6.556;2022-10-31T07:02:13;102021.38;;;15.30;66.71
29359;BME280;16347;53.232;6.556;2022-10-31T07:04:42;102014.16;;;15.29;66.98
29359;BME280;16347;53.232;6.556;2022-10-31T07:07:13;102008.53;;;15.30;66.74
29359;BME280;16347;53.232;6.556;2022-10-31T07:09:41;102018.47;;;15.31;66.83
29359;BME280;16347;53.232;6.556;2022-10-31T07:12:12;102026.22;;;15.36;66.53
29359;BME280;16347;53.232;6.556;2022-10-31T07:14:47;102025.75;;;15.40;66.87
29359;BME280;16347;53.232;6.556;2022-10-31T07:17:15;102023.00;;;15.40;66.99
29359;BME280;16347;53.232;6.556;2022-10-31T07:19:44;102027.75;;;15.38;66.68
29359;BME280;16347;53.232;6.556;2022-10-31T07:22:15;102022.50;;;15.45;66.97
29359;BME280;16347;53.232;6.556;2022-10-31T07:24:43;102031.81;;;15.52;66.81
29359;BME280;16347;53.232;6.556;2022-10-31T07:27:48;102031.66;;;15.54;66.50
29359;BME280;16347;53.232;6.556;2022-10-31T07:30:18;102034.22;;;15.55;66.59
29359;BME280;16347;53.232;6.556;2022-10-31T07:32:50;102035.81;;;15.58;66.52
29359;BME280;16347;53.232;6.556;2022-10-31T07:35:20;102022.59;;;15.53;66.70
29359;BME280;16347;53.232;6.556;2022-10-31T07:37:55;102036.66;;;15.58;66.64
29359;BME280;16347;53.232;6.556;2022-10-31T07:40:25;102033.63;;;15.44;67.04
29359;BME280;16347;53.232;6.556;2022-10-31T07:42:54;102033.38;;;15.55;66.98
29359;BME280;16347;53.232;6.556;2022-10-31T07:45:55;102035.97;;;15.56;67.17
29359;BME280;16347;53.232;6.556;2022-10-31T07:48:58;102030.13;;;15.51;67.21
29359;BME280;16347;53.232;6.556;2022-10-31T07:51:45;102039.81;;;15.46;67.11
29359;BME280;16347;53.232;6.556;2022-10-31T07:54:45;102036.38;;;15.44;67.64
29359;BME280;16347;53.232;6.556;2022-10-31T07:57:21;102031.44;;;15.47;67.54
29359;BME280;16347;53.232;6.556;2022-10-31T07:59:52;102043.13;;;15.49;67.40
29359;BME280;16347;53.232;6.556;2022-10-31T08:02:22;102042.41;;;15.47;67.69
29359;BME280;16347;53.232;6.556;2022-10-31T08:05:10;102046.00;;;15.48;68.01
29359;BME280;16347;53.232;6.556;2022-10-31T08:07:58;102044.72;;;15.34;68.07
29359;BME280;16347;53.232;6.556;2022-10-31T08:10:29;102042.88;;;15.43;68.24
29359;BME280;16347;53.232;6.556;2022-10-31T08:12:58;102041.38;;;15.48;68.93
29359;BME280;16347;53.232;6.556;2022-10-31T08:15:28;102047.59;;;15.50;68.62
29359;BME280;16347;53.232;6.556;2022-10-31T08:17:57;102040.03;;;15.52;68.51
29359;BME280;16347;53.232;6.556;2022-10-31T08:20:26;102045.38;;;15.54;68.20
29359;BME280;16347;53.232;6.556;2022-10-31T08:22:58;102044.53;;;15.61;68.37
29359;BME280;16347;53.232;6.556;2022-10-31T08:25:28;102047.47;;;15.60;68.11
29359;BME280;16347;53.232;6.556;2022-10-31T08:28:03;102043.91;;;15.67;67.96
29359;BME280;16347;53.232;6.556;2022-10-31T08:30:34;102051.97;;;15.69;67.74
29359;BME280;16347;53.232;6.556;2022-10-31T08:33:37;102049.06;;;15.70;67.47
29359;BME280;16347;53.232;6.556;2022-10-31T08:36:29;102049.72;;;15.64;67.69
29359;BME280;16347;53.232;6.556;2022-10-31T08:39:10;102047.69;;;15.66;67.48
29359;BME280;16347;53.232;6.556;2022-10-31T08:41:38;102050.16;;;15.77;67.36
29359;BME280;16347;53.232;6.556;2022-10-31T08:44:10;102048.09;;;15.79;67.31
29359;BME280;16347;53.232;6.556;2022-10-31T08:46:39;102051.84;;;15.78;67.40
29359;BME280;16347;53.232;6.556;2022-10-31T08:49:07;102057.31;;;15.78;67.70
29359;BME280;16347;53.232;6.556;2022-10-31T08:51:35;102055.78;;;15.76;67.33
29359;BME280;16347;53.232;6.556;2022-10-31T08:54:04;102055.09;;;15.74;67.41
29359;BME280;16347;53.232;6.556;2022-10-31T08:56:53;102056.84;;;15.83;67.72
29359;BME280;16347;53.232;6.556;2022-10-31T08:59:39;102063.13;;;15.75;67.50
29359;BME280;16347;53.232;6.556;2022-10-31T09:02:23;102053.91;;;15.76;67.80
29359;BME280;16347;53.232;6.556;2022-10-31T09:04:56;102059.88;;;15.72;67.56
29359;BME280;16347;53.232;6.556;2022-10-31T09:07:24;102050.28;;;15.76;68.48
29359;BME280;16347;53.232;6.556;2022-10-31T09:09:53;102052.75;;;15.87;68.54
29359;BME280;16347;53.232;6.556;2022-10-31T09:12:22;102051.91;;;15.86;67.71
29359;BME280;16347;53.232;6.556;2022-10-31T09:15:09;102050.16;;;15.85;67.64
29359;BME280;16347;53.232;6.556;2022-10-31T09:17:47;102048.13;;;15.87;67.89
29359;BME280;16347;53.232;6.556;2022-10-31T09:20:39;102049.34;;;15.93;67.96
29359;BME280;16347;53.232;6.556;2022-10-31T09:23:10;102050.03;;;15.87;67.35
29359;BME280;16347;53.232;6.556;2022-10-31T09:25:39;102052.91;;;15.85;67.48
29359;BME280;16347;53.232;6.556;2022-10-31T09:28:48;102048.69;;;15.91;67.66
29359;BME280;16347;53.232;6.556;2022-10-31T09:31:17;102042.81;;;15.86;67.62
29359;BME280;16347;53.232;6.556;2022-10-31T09:34:10;102044.81;;;15.76;68.05
29359;BME280;16347;53.232;6.556;2022-10-31T09:36:44;102048.47;;;15.84;68.09
29359;BME280;16347;53.232;6.556;2022-10-31T09:39:21;102041.06;;;15.85;68.20
29359;BME280;16347;53.232;6.556;2022-10-31T09:42:06;102041.47;;;15.90;68.23
29359;BME280;16347;53.232;6.556;2022-10-31T09:44:46;102038.72;;;15.90;68.28
29359;BME280;16347;53.232;6.556;2022-10-31T09:47:40;102035.84;;;16.00;67.99
29359;BME280;16347;53.232;6.556;2022-10-31T09:50:40;102037.69;;;15.91;68.16
29359;BME280;16347;53.232;6.556;2022-10-31T09:53:36;102036.44;;;15.85;68.04
29359;BME280;16347;53.232;6.556;2022-10-31T09:56:09;102033.19;;;15.82;68.61
29359;BME280;16347;53.232;6.556;2022-10-31T09:58:42;102034.56;;;15.78;68.77
29359;BME280;16347;53.232;6.556;2022-10-31T10:01:21;102045.06;;;15.90;69.22
29359;BME280;16347;53.232;6.556;2022-10-31T10:03:54;102031.84;;;15.86;68.85
29359;BME280;16347;53.232;6.556;2022-10-31T10:06:54;102027.41;;;15.93;68.52
29359;BME280;16347;53.232;6.556;2022-10-31T10:09:57;102033.56;;;15.87;68.82
29359;BME280;16347;53.232;6.556;2022-10-31T10:12:58;102037.97;;;15.80;69.33
29359;BME280;16347;53.232;6.556;2022-10-31T10:15:43;102034.91;;;15.83;69.90
29359;BME280;16347;53.232;6.556;2022-10-31T10:18:23;102042.66;;;15.87;69.61
29359;BME280;16347;53.232;6.556;2022-10-31T10:21:05;102032.94;;;16.01;69.11
29359;BME280;16347;53.232;6.556;2022-10-31T10:23:55;102035.16;;;15.98;69.43
29359;BME280;16347;53.232;6.556;2022-10-31T10:26:29;102032.28;;;16.15;69.16
29359;BME280;16347;53.232;6.556;2022-10-31T10:29:22;102022.75;;;16.27;69.36
29359;BME280;16347;53.232;6.556;2022-10-31T10:31:53;102020.19;;;16.42;68.96
29359;BME280;16347;53.232;6.556;2022-10-31T10:34:25;102014.50;;;16.27;67.96
29359;BME280;16347;53.232;6.556;2022-10-31T10:36:57;102024.97;;;16.24;67.94
29359;BME280;16347;53.232;6.556;2022-10-31T10:39:35;102027.38;;;16.27;68.44
29359;BME280;16347;53.232;6.556;2022-10-31T10:42:10;102014.69;;;16.34;68.42
29359;BME280;16347;53.232;6.556;2022-10-31T10:44:57;102016.75;;;16.40;68.40
29359;BME280;16347;53.232;6.556;2022-10-31T10:47:45;102003.94;;;16.57;67.75
29359;BME280;16347;53.232;6.556;2022-10-31T10:50:19;102004.13;;;16.55;67.33
29359;BME280;16347;53.232;6.556;2022-10-31T10:52:59;102009.81;;;16.62;67.24
29359;BME280;16347;53.232;6.556;2022-10-31T10:55:35;101998.94;;;16.52;66.70
29359;BME280;16347;53.232;6.556;2022-10-31T10:58:07;102007.50;;;16.41;66.45
29359;BME280;16347;53.232;6.556;2022-10-31T11:00:38;101995.66;;;16.40;66.96
29359;BME280;16347;53.232;6.556;2022-10-31T11:03:08;102001.16;;;16.40;67.54
29359;BME280;16347;53.232;6.556;2022-10-31T11:05:39;101999.13;;;16.51;66.91
29359;BME280;16347;53.232;6.556;2022-10-31T11:08:11;101985.94;;;16.62;66.96
29359;BME280;16347;53.232;6.556;2022-10-31T11:11:01;101993.31;;;16.70;67.10
29359;BME280;16347;53.232;6.556;2022-10-31T11:13:30;101989.22;;;16.74;66.84
29359;BME280;16347;53.232;6.556;2022-10-31T11:16:02;101987.81;;;16.86;66.17
29359;BME280;16347;53.232;6.556;2022-10-31T11:18:32;101984.91;;;16.96;66.03
29359;BME280;16347;53.232;6.556;2022-10-31T11:21:02;101977.34;;;16.98;65.30
29359;BME280;16347;53.232;6.556;2022-10-31T11:23:32;101981.13;;;17.05;65.60
29359;BME280;16347;53.232;6.556;2022-10-31T11:26:05;101973.75;;;17.05;65.49
29359;BME280;16347;53.232;6.556;2022-10-31T11:28:34;101968.59;;;17.02;65.26
29359;BME280;16347;53.232;6.556;2022-10-31T11:31:06;101968.78;;;17.01;64.97
29359;BME280;16347;53.232;6.556;2022-10-31T11:33:37;101965.31;;;17.07;64.96
29359;BME280;16347;53.232;6.556;2022-10-31T11:36:15;101983.34;;;17.09;64.70
29359;BME280;16347;53.232;6.556;2022-10-31T11:38:44;101972.38;;;17.01;64.54
29359;BME280;16347;53.232;6.556;2022-10-31T11:41:15;101960.53;;;17.01;64.82
29359;BME280;16347;53.232;6.556;2022-10-31T11:43:47;101959.16;;;16.97;64.98
29359;BME280;16347;53.232;6.556;2022-10-31T11:46:19;101954.53;;;17.05;64.79
29359;BME280;16347;53.232;6.556;2022-10-31T11:48:49;101946.28;;;17.05;65.23
29359;BME280;16347;53.232;6.556;2022-10-31T11:51:24;101938.84;;;17.14;64.99
29359;BME280;16347;53.232;6.556;2022-10-31T11:53:55;101927.50;;;17.25;64.92
29359;BME280;16347;53.232;6.556;2022-10-31T11:56:39;101917.47;;;17.40;64.87
29359;BME280;16347;53.232;6.556;2022-10-31T11:59:18;101909.94;;;17.42;65.09
29359;BME280;16347;53.232;6.556;2022-10-31T12:01:47;101903.72;;;17.48;64.78
29359;BME280;16347;53.232;6.556;2022-10-31T12:04:16;101914.50;;;17.50;64.20
29359;BME280;16347;53.232;6.556;2022-10-31T12:06:46;101906.28;;;17.58;63.77
29359;BME280;16347;53.232;6.556;2022-10-31T12:09:21;101892.16;;;17.61;63.20
29359;BME280;16347;53.232;6.556;2022-10-31T12:12:04;101885.28;;;17.65;62.51
29359;BME280;16347;53.232;6.556;2022-10-31T12:14:41;101881.66;;;17.64;62.23
29359;BME280;16347;53.232;6.556;2022-10-31T12:17:15;101879.78;;;17.65;62.98
29359;BME280;16347;53.232;6.556;2022-10-31T12:19:50;101885.41;;;17.71;62.90
29359;BME280;16347;53.232;6.556;2022-10-31T12:22:26;101883.81;;;17.77;63.43
29359;BME280;16347;53.232;6.556;2022-10-31T12:25:24;101887.91;;;17.89;64.11
29359;BME280;16347;53.232;6.556;2022-10-31T12:28:03;101881.28;;;17.98;63.66
29359;BME280;16347;53.232;6.556;2022-10-31T12:30:47;101871.81;;;18.01;62.17
29359;BME280;16347;53.232;6.556;2022-10-31T12:33:30;101861.00;;;17.99;62.55
29359;BME280;16347;53.232;6.556;2022-10-31T12:36:15;101862.69;;;18.00;62.54
29359;BME280;16347;53.232;6.556;2022-10-31T12:39:01;101844.50;;;17.99;63.17
29359;BME280;16347;53.232;6.556;2022-10-31T12:41:43;101834.63;;;18.05;63.80
29359;BME280;16347;53.232;6.556;2022-10-31T12:44:37;101825.53;;;18.04;63.36
29359;BME280;16347;53.232;6.556;2022-10-31T12:47:27;101806.63;;;18.01;63.31
29359;BME280;16347;53.232;6.556;2022-10-31T12:50:08;101797.72;;;17.99;63.39
29359;BME280;16347;53.232;6.556;2022-10-31T12:52:51;101792.69;;;18.03;63.81
29359;BME280;16347;53.232;6.556;2022-10-31T12:55:34;101792.22;;;17.99;63.34
29359;BME280;16347;53.232;6.556;2022-10-31T12:58:09;101785.47;;;18.02;63.64
29359;BME280;16347;53.232;6.556;2022-10-31T13:00:43;101788.50;;;18.07;63.78
29359;BME280;16347;53.232;6.556;2022-10-31T13:03:21;101777.97;;;18.10;63.06
29359;BME280;16347;53.232;6.556;2022-10-31T13:05:53;101783.50;;;18.10;62.78
29359;BME280;16347;53.232;6.556;2022-10-31T13:08:28;101791.38;;;18.13;63.15
29359;BME280;16347;53.232;6.556;2022-10-31T13:11:05;101785.53;;;18.16;62.43
29359;BME280;16347;53.232;6.556;2022-10-31T13:13:37;101775.16;;;18.18;62.34
29359;BME280;16347;53.232;6.556;2022-10-31T13:16:13;101759.78;;;18.24;62.45
29359;BME280;16347;53.232;6.556;2022-10-31T13:18:46;101744.50;;;18.21;62.54
29359;BME280;16347;53.232;6.556;2022-10-31T13:21:19;101739.66;;;18.23;62.36
29359;BME280;16347;53.232;6.556;2022-10-31T13:23:50;101747.75;;;18.25;62.46
29359;BME280;16347;53.232;6.556;2022-10-31T13:26:23;101772.34;;;18.26;61.90
29359;BME280;16347;53.232;6.556;2022-10-31T13:29:00;101772.03;;;18.21;61.80
29359;BME280;16347;53.232;6.556;2022-10-31T13:31:32;101764.91;;;18.12;62.16
29359;BME280;16347;53.232;6.556;2022-10-31T13:34:04;101763.03;;;18.13;62.10
29359;BME280;16347;53.232;6.556;2022-10-31T13:36:39;101752.50;;;18.16;62.14